createdAt,value
2022-12-23T00:00:58.101Z,76.40
2022-12-23T00:03:28.805Z,76.20
2022-12-23T00:05:59.229Z,76.49
2022-12-23T00:08:31.276Z,76.31
2022-12-23T00:11:00.948Z,76.36
2022-12-23T00:13:50.819Z,76.90
2022-12-23T00:16:20.526Z,76.54
2022-12-23T00:18:50.266Z,76.59
2022-12-23T00:21:19.992Z,76.62
2022-12-23T00:23:53.343Z,76.62
2022-12-23T00:26:26.068Z,76.46
2022-12-23T00:29:03.583Z,76.35
2022-12-23T00:31:35.367Z,76.46
2022-12-23T00:34:05.084Z,76.45
2022-12-23T00:36:34.849Z,76.30
2022-12-23T00:39:23.572Z,76.35
2022-12-23T00:42:12.814Z,76.14
2022-12-23T00:44:43.005Z,76.19
2022-12-23T00:47:34.137Z,76.39
2022-12-23T00:50:03.311Z,76.34
2022-12-23T00:52:33.057Z,76.43
2022-12-23T00:55:02.910Z,76.39
2022-12-23T00:57:32.877Z,76.42
2022-12-23T01:00:02.914Z,76.22
2022-12-23T01:02:52.612Z,76.33
2022-12-23T01:05:38.252Z,76.40
2022-12-23T01:08:12.551Z,76.29
2022-12-23T01:10:42.817Z,76.36
2022-12-23T01:13:12.590Z,76.36
2022-12-23T01:15:42.310Z,76.42
2022-12-23T01:18:12.379Z,76.45
2022-12-23T01:20:42.417Z,76.15
2022-12-23T01:23:12.490Z,75.95
2022-12-23T01:25:41.028Z,76.18
2022-12-23T01:28:09.627Z,76.38
2022-12-23T01:30:39.546Z,76.36
2022-12-23T01:33:09.321Z,76.32
2022-12-23T01:35:39.045Z,76.04
2022-12-23T01:38:09.391Z,76.25
2022-12-23T01:40:41.637Z,76.13
2022-12-23T01:43:18.375Z,75.86
2022-12-23T01:45:50.021Z,75.80
2022-12-23T01:48:27.616Z,76.46
2022-12-23T01:51:03.933Z,76.46
2022-12-23T01:53:41.145Z,76.88
2022-12-23T01:56:27.187Z,76.80
2022-12-23T01:59:03.570Z,76.50
2022-12-23T02:01:53.378Z,76.68
2022-12-23T02:04:26.270Z,76.32
2022-12-23T02:07:16.528Z,76.21
2022-12-23T02:09:46.653Z,76.69
2022-12-23T02:12:43.421Z,76.55
2022-12-23T02:15:57.994Z,76.51
2022-12-23T02:18:52.508Z,76.31
2022-12-23T02:21:59.782Z,76.25
2022-12-23T02:24:57.747Z,76.09
2022-12-23T02:27:33.950Z,76.16
2022-12-23T02:30:25.908Z,76.21
2022-12-23T02:33:08.161Z,75.83
2022-12-23T02:35:56.260Z,75.75
2022-12-23T02:38:34.990Z,76.22
2022-12-23T02:41:29.472Z,76.45
2022-12-23T02:44:10.643Z,76.67
2022-12-23T02:46:51.498Z,76.97
2022-12-23T02:49:46.001Z,76.53
2022-12-23T02:52:19.416Z,76.69
2022-12-23T02:54:57.116Z,76.76
2022-12-23T02:57:35.545Z,76.68
2022-12-23T03:00:08.235Z,76.76
2022-12-23T03:02:40.688Z,76.85
2022-12-23T03:05:30.208Z,76.86
2022-12-23T03:08:03.780Z,76.27
2022-12-23T03:10:57.505Z,76.46
2022-12-23T03:13:39.160Z,76.38
2022-12-23T03:16:25.153Z,76.74
2022-12-23T03:19:24.998Z,76.80
2022-12-23T03:22:08.012Z,76.41
2022-12-23T03:25:14.648Z,77.22
2022-12-23T03:28:13.763Z,77.44
2022-12-23T03:30:47.930Z,77.94
2022-12-23T03:33:23.052Z,77.96
2022-12-23T03:36:08.049Z,77.95
2022-12-23T03:38:41.275Z,77.45
2022-12-23T03:41:20.686Z,77.59
2022-12-23T03:44:03.414Z,77.81
2022-12-23T03:46:42.119Z,77.70
2022-12-23T03:49:30.714Z,77.87
2022-12-23T03:52:11.754Z,77.75
2022-12-23T03:54:51.429Z,77.97
2022-12-23T03:57:26.695Z,78.06
2022-12-23T03:59:57.269Z,77.98
2022-12-23T04:02:58.871Z,77.95
2022-12-23T04:05:37.989Z,78.00
2022-12-23T04:08:22.732Z,78.20
2022-12-23T04:10:52.917Z,78.24
2022-12-23T04:13:22.618Z,77.87
2022-12-23T04:15:52.268Z,77.96
2022-12-23T04:18:21.962Z,77.87
2022-12-23T04:20:52.096Z,78.10
2022-12-23T04:23:21.781Z,77.78
2022-12-23T04:25:51.025Z,78.08
2022-12-23T04:28:21.146Z,77.92
2022-12-23T04:30:50.518Z,77.88
2022-12-23T04:33:22.358Z,77.83
2022-12-23T04:35:52.032Z,77.77
2022-12-23T04:38:21.559Z,78.32
2022-12-23T04:40:50.149Z,78.37
2022-12-23T04:43:18.708Z,78.18
2022-12-23T04:45:52.303Z,78.26
2022-12-23T04:48:22.010Z,78.54
2022-12-23T04:50:51.839Z,78.46
2022-12-23T04:53:20.724Z,78.52
2022-12-23T04:55:53.287Z,78.76
2022-12-23T04:58:25.395Z,78.80
2022-12-23T05:01:08.782Z,78.72
2022-12-23T05:03:41.116Z,79.04
2022-12-23T05:06:13.273Z,79.15
2022-12-23T05:08:43.473Z,79.15
2022-12-23T05:11:13.648Z,79.14
2022-12-23T05:13:43.435Z,78.98
2022-12-23T05:16:13.313Z,79.17
2022-12-23T05:18:43.341Z,79.06
2022-12-23T05:21:13.132Z,79.37
2022-12-23T05:23:42.855Z,79.19
2022-12-23T05:26:12.894Z,79.46
2022-12-23T05:28:44.276Z,79.36
2022-12-23T05:31:14.706Z,79.33
2022-12-23T05:33:45.159Z,79.20
2022-12-23T05:36:15.068Z,79.60
2022-12-23T05:38:45.247Z,79.32
2022-12-23T05:41:16.339Z,79.31
2022-12-23T05:43:45.389Z,79.60
2022-12-23T05:46:16.260Z,79.25
2022-12-23T05:48:49.722Z,79.19
2022-12-23T05:51:18.170Z,79.09
2022-12-23T05:53:48.869Z,79.47
2022-12-23T05:56:18.975Z,79.29
2022-12-23T05:58:48.529Z,79.50
2022-12-23T06:01:20.604Z,79.22
2022-12-23T06:03:50.722Z,79.74
2022-12-23T06:06:20.746Z,79.66
2022-12-23T06:08:55.763Z,79.31
2022-12-23T06:11:29.955Z,79.52
2022-12-23T06:13:59.627Z,79.39
2022-12-23T06:16:29.814Z,79.43
2022-12-23T06:18:59.597Z,79.50
2022-12-23T06:21:29.615Z,79.32
2022-12-23T06:23:59.100Z,79.39
2022-12-23T06:26:29.063Z,79.59
2022-12-23T06:28:58.817Z,79.58
2022-12-23T06:31:28.975Z,79.64
2022-12-23T06:33:59.107Z,79.25
2022-12-23T06:36:28.644Z,79.27
2022-12-23T06:38:58.914Z,79.40
2022-12-23T06:41:29.019Z,79.77
2022-12-23T06:43:59.160Z,79.65
2022-12-23T06:46:28.976Z,79.47
2022-12-23T06:48:59.014Z,79.57
2022-12-23T06:51:29.133Z,79.45
2022-12-23T06:54:02.516Z,79.39
2022-12-23T06:56:34.015Z,79.45
2022-12-23T06:59:03.852Z,79.64
2022-12-23T07:01:33.660Z,79.84
2022-12-23T07:04:03.565Z,79.77
2022-12-23T07:06:33.297Z,79.50
2022-12-23T07:09:03.544Z,80.01
2022-12-23T07:11:32.816Z,80.06
2022-12-23T07:14:02.074Z,80.32
2022-12-23T07:16:31.044Z,79.96
2022-12-23T07:18:59.617Z,79.78
2022-12-23T07:21:30.344Z,80.07
2022-12-23T07:24:00.657Z,79.92
2022-12-23T07:26:30.666Z,79.86
2022-12-23T07:29:00.640Z,79.96
2022-12-23T07:31:30.642Z,79.61
2022-12-23T07:34:00.678Z,79.43
2022-12-23T07:36:30.070Z,79.46
2022-12-23T07:38:59.597Z,79.17
2022-12-23T07:41:30.075Z,79.28
2022-12-23T07:44:03.236Z,79.50
2022-12-23T07:46:32.985Z,79.76
2022-12-23T07:49:02.859Z,79.26
2022-12-23T07:51:32.707Z,78.82
2022-12-23T07:54:06.914Z,78.43
2022-12-23T07:56:36.271Z,78.23
2022-12-23T07:59:05.499Z,78.72
2022-12-23T08:01:35.684Z,78.58
2022-12-23T08:04:06.439Z,78.42
2022-12-23T08:06:37.260Z,78.24
2022-12-23T08:09:07.189Z,78.39
2022-12-23T08:11:38.116Z,78.25
2022-12-23T08:14:08.207Z,77.91
2022-12-23T08:16:43.418Z,77.13
2022-12-23T08:19:13.890Z,76.33
2022-12-23T08:21:44.073Z,76.32
2022-12-23T08:24:14.126Z,76.71
2022-12-23T08:26:44.012Z,75.61
2022-12-23T08:29:13.317Z,76.05
2022-12-23T08:31:42.734Z,75.82
2022-12-23T08:34:12.555Z,74.81
2022-12-23T08:36:41.871Z,75.01
2022-12-23T08:39:13.123Z,75.15
2022-12-23T08:41:46.454Z,74.76
2022-12-23T08:44:16.652Z,74.03
2022-12-23T08:46:46.567Z,74.14
2022-12-23T08:49:15.469Z,73.65
2022-12-23T08:51:45.982Z,73.15
2022-12-23T08:54:16.318Z,71.56
2022-12-23T08:56:45.599Z,70.56
2022-12-23T08:59:19.588Z,70.43
2022-12-23T09:01:49.166Z,70.13
2022-12-23T09:04:20.432Z,70.70
2022-12-23T09:06:50.400Z,70.50
2022-12-23T09:09:20.128Z,70.97
2022-12-23T09:11:49.587Z,70.97
2022-12-23T09:14:18.857Z,70.75
2022-12-23T09:16:52.904Z,71.06
2022-12-23T09:19:22.987Z,70.56
2022-12-23T09:21:53.201Z,70.93
2022-12-23T09:24:23.139Z,71.36
2022-12-23T09:26:53.152Z,71.77
2022-12-23T09:29:23.648Z,72.26
2022-12-23T09:31:53.565Z,72.18
2022-12-23T09:34:24.875Z,72.42
2022-12-23T09:36:55.647Z,72.25
2022-12-23T09:39:25.127Z,72.53
2022-12-23T09:42:02.567Z,72.95
2022-12-23T09:44:44.861Z,72.74
2022-12-23T09:47:18.929Z,73.07
2022-12-23T09:49:53.380Z,73.10
2022-12-23T09:52:34.257Z,72.95
2022-12-23T09:55:03.661Z,72.35
2022-12-23T09:58:07.359Z,72.27
2022-12-23T10:00:50.921Z,72.15
2022-12-23T10:03:53.809Z,72.51
2022-12-23T10:06:28.597Z,72.84
2022-12-23T10:09:06.242Z,73.18
2022-12-23T10:11:45.270Z,73.12
2022-12-23T10:14:27.212Z,72.89
2022-12-23T10:17:03.319Z,73.22
2022-12-23T10:19:45.156Z,73.18
2022-12-23T10:22:40.775Z,73.10
2022-12-23T10:25:22.892Z,72.64
2022-12-23T10:27:52.956Z,72.92
2022-12-23T10:30:56.864Z,72.84
2022-12-23T10:33:23.127Z,72.62
2022-12-23T10:36:02.248Z,72.42
2022-12-23T10:38:40.612Z,71.91
2022-12-23T10:41:49.419Z,72.32
2022-12-23T10:44:43.402Z,72.50
2022-12-23T10:47:55.824Z,72.31
2022-12-23T10:50:59.352Z,72.57
2022-12-23T10:53:48.806Z,72.74
2022-12-23T10:56:20.325Z,72.69
2022-12-23T10:58:57.265Z,72.82
2022-12-23T11:01:31.245Z,72.47
2022-12-23T11:04:20.081Z,72.06
2022-12-23T11:07:18.131Z,71.73
2022-12-23T11:09:51.476Z,72.05
2022-12-23T11:12:26.577Z,72.26
2022-12-23T11:14:58.229Z,72.15
2022-12-23T11:17:33.781Z,72.06
2022-12-23T11:20:13.674Z,72.22
2022-12-23T11:22:58.771Z,72.36
2022-12-23T11:25:30.063Z,72.42
2022-12-23T11:28:12.176Z,71.96
2022-12-23T11:31:18.917Z,72.14
2022-12-23T11:33:59.422Z,71.97
2022-12-23T11:36:32.001Z,72.27
2022-12-23T11:39:10.675Z,71.96
2022-12-23T11:41:53.115Z,71.90
2022-12-23T11:44:36.982Z,71.95
2022-12-23T11:47:38.563Z,71.86
2022-12-23T11:50:40.531Z,72.04
2022-12-23T11:53:23.615Z,71.91
2022-12-23T11:56:05.567Z,72.01
2022-12-23T11:58:48.677Z,71.98
2022-12-23T12:01:20.976Z,71.67
2022-12-23T12:04:02.893Z,71.92
2022-12-23T12:06:34.153Z,71.85
2022-12-23T12:09:05.957Z,71.98
2022-12-23T12:11:50.043Z,72.01
2022-12-23T12:14:26.578Z,71.85
2022-12-23T12:17:16.836Z,71.87
2022-12-23T12:19:56.558Z,71.90
2022-12-23T12:22:37.645Z,72.02
2022-12-23T12:25:19.201Z,71.91
2022-12-23T12:28:03.365Z,71.87
2022-12-23T12:30:41.008Z,71.78
2022-12-23T12:33:34.259Z,71.76
2022-12-23T12:36:15.553Z,71.66
2022-12-23T12:38:50.051Z,71.65
2022-12-23T12:41:31.269Z,71.65
2022-12-23T12:44:22.802Z,71.52
2022-12-23T12:46:59.111Z,71.52
2022-12-23T12:49:59.984Z,71.68
2022-12-23T12:52:37.045Z,71.83
2022-12-23T12:55:30.445Z,71.90
2022-12-23T12:58:03.181Z,71.72
2022-12-23T13:00:48.824Z,71.85
2022-12-23T13:03:58.303Z,71.96
2022-12-23T13:07:02.349Z,72.09
2022-12-23T13:09:51.354Z,72.05
2022-12-23T13:12:25.855Z,71.81
2022-12-23T13:14:58.213Z,71.90
2022-12-23T13:17:38.929Z,71.59
2022-12-23T13:20:30.540Z,71.37
2022-12-23T13:23:41.564Z,71.10
2022-12-23T13:26:36.046Z,70.67
2022-12-23T13:29:40.495Z,70.43
2022-12-23T13:32:42.427Z,70.75
2022-12-23T13:35:51.136Z,70.41
2022-12-23T13:38:42.359Z,70.65
2022-12-23T13:41:17.779Z,70.52
2022-12-23T13:43:49.340Z,70.11
2022-12-23T13:46:36.721Z,70.43
2022-12-23T13:49:40.397Z,70.36
2022-12-23T13:52:28.926Z,70.20
2022-12-23T13:55:19.826Z,70.61
2022-12-23T13:58:25.708Z,70.17
2022-12-23T14:01:10.200Z,70.48
2022-12-23T14:03:40.592Z,70.60
2022-12-23T14:06:24.203Z,70.67
2022-12-23T14:08:56.048Z,70.90
2022-12-23T14:11:28.855Z,71.06
2022-12-23T14:14:01.397Z,71.23
2022-12-23T14:17:10.469Z,71.31
2022-12-23T14:20:05.870Z,71.45
2022-12-23T14:22:54.905Z,71.58
2022-12-23T14:25:56.974Z,71.54
2022-12-23T14:28:43.064Z,71.51
2022-12-23T14:31:34.004Z,71.48
2022-12-23T14:34:19.324Z,71.27
2022-12-23T14:37:16.908Z,71.77
2022-12-23T14:39:46.195Z,71.86
2022-12-23T14:42:40.889Z,72.34
2022-12-23T14:45:35.664Z,72.89
2022-12-23T14:48:37.346Z,73.03
2022-12-23T14:51:10.905Z,73.25
2022-12-23T14:54:14.541Z,72.99
2022-12-23T14:57:05.687Z,73.29
2022-12-23T15:00:00.099Z,72.78
2022-12-23T15:02:34.615Z,72.99
2022-12-23T15:05:05.207Z,73.22
2022-12-23T15:07:47.201Z,73.50
2022-12-23T15:10:22.335Z,73.70
2022-12-23T15:13:03.243Z,74.26
2022-12-23T15:15:35.699Z,74.53
2022-12-23T15:18:12.701Z,75.06
2022-12-23T15:20:42.002Z,75.12
2022-12-23T15:23:17.155Z,75.32
2022-12-23T15:25:49.443Z,75.60
2022-12-23T15:28:25.227Z,75.61
2022-12-23T15:30:57.411Z,75.80
2022-12-23T15:36:31.185Z,75.85
2022-12-23T15:39:04.102Z,75.69
2022-12-23T15:41:46.303Z,75.56
2022-12-23T15:44:35.026Z,75.00
2022-12-23T15:47:32.905Z,74.54
2022-12-23T15:50:03.356Z,74.62
2022-12-23T15:52:34.065Z,74.58
2022-12-23T15:55:29.333Z,74.37
2022-12-23T15:58:00.184Z,73.99
2022-12-23T16:00:51.767Z,73.94
2022-12-23T16:03:35.170Z,73.95
2022-12-23T16:06:21.936Z,74.25
2022-12-23T16:09:13.175Z,74.12
2022-12-23T16:12:00.895Z,74.24
2022-12-23T16:14:38.751Z,74.28
2022-12-23T16:17:11.881Z,74.36
2022-12-23T16:19:49.897Z,74.27
2022-12-23T16:22:26.097Z,74.41
2022-12-23T16:25:20.322Z,74.57
2022-12-23T16:27:57.388Z,74.98
2022-12-23T16:30:33.290Z,75.25
2022-12-23T16:33:07.359Z,75.44
2022-12-23T16:35:42.718Z,75.56
2022-12-23T16:38:19.379Z,75.64
2022-12-23T16:40:51.281Z,75.46
2022-12-23T16:43:22.211Z,75.51
2022-12-23T16:45:55.520Z,75.87
2022-12-23T16:48:40.908Z,75.81
2022-12-23T16:51:18.774Z,76.24
2022-12-23T16:53:50.445Z,76.35
2022-12-23T16:56:21.086Z,76.86
2022-12-23T16:58:51.348Z,77.08
2022-12-23T17:01:34.296Z,77.07
2022-12-23T17:04:05.441Z,77.12
2022-12-23T17:06:37.141Z,77.52
2022-12-23T17:09:07.589Z,77.21
2022-12-23T17:11:50.207Z,77.54
2022-12-23T17:14:22.904Z,77.66
2022-12-23T17:16:52.986Z,77.54
2022-12-23T17:19:28.571Z,77.40
2022-12-23T17:22:03.453Z,77.41
2022-12-23T17:24:33.015Z,77.71
2022-12-23T17:27:05.472Z,77.76
2022-12-23T17:29:33.975Z,77.78
2022-12-23T17:32:04.160Z,77.78
2022-12-23T17:34:33.878Z,77.81
2022-12-23T17:37:03.664Z,77.71
2022-12-23T17:39:32.319Z,77.57
2022-12-23T17:42:02.674Z,77.73
2022-12-23T17:44:32.798Z,77.64
2022-12-23T17:47:02.940Z,77.85
2022-12-23T17:49:32.811Z,77.71
2022-12-23T17:52:02.446Z,77.79
2022-12-23T17:54:32.197Z,77.52
2022-12-23T17:57:02.422Z,77.31
2022-12-23T17:59:32.218Z,77.39
2022-12-23T18:02:04.286Z,77.51
2022-12-23T18:04:37.247Z,77.66
2022-12-23T18:07:06.878Z,77.65
2022-12-23T18:09:36.982Z,77.50
2022-12-23T18:12:06.833Z,77.21
2022-12-23T18:14:36.879Z,77.45
2022-12-23T18:17:08.628Z,77.45
2022-12-23T18:19:38.310Z,77.47
2022-12-23T18:22:19.134Z,77.57
2022-12-23T18:24:58.906Z,77.73
2022-12-23T18:27:29.672Z,77.98
2022-12-23T18:29:58.992Z,78.06
2022-12-23T18:32:29.480Z,78.15
2022-12-23T18:34:59.452Z,77.99
2022-12-23T18:37:29.240Z,78.16
2022-12-23T18:39:59.016Z,78.18
2022-12-23T18:42:28.656Z,78.43
2022-12-23T18:44:57.166Z,78.10
2022-12-23T18:47:26.483Z,78.04
2022-12-23T18:49:56.203Z,78.01
2022-12-23T18:52:26.774Z,78.27
2022-12-23T18:54:56.637Z,78.55
2022-12-23T18:57:26.411Z,78.42
2022-12-23T18:59:56.271Z,78.31
2022-12-23T19:02:24.833Z,78.55
2022-12-23T19:04:54.706Z,78.46
2022-12-23T19:07:24.534Z,78.43
2022-12-23T19:09:54.529Z,78.33
2022-12-23T19:12:23.138Z,78.28
2022-12-23T19:14:52.858Z,78.51
2022-12-23T19:17:24.655Z,78.65
2022-12-23T19:19:54.806Z,78.54
2022-12-23T19:22:25.415Z,78.75
2022-12-23T19:25:05.466Z,78.37
2022-12-23T19:27:36.054Z,78.62
2022-12-23T19:30:07.375Z,78.40
2022-12-23T19:32:36.742Z,78.46
2022-12-23T19:35:06.586Z,78.70
2022-12-23T19:37:38.723Z,78.71
2022-12-23T19:40:09.517Z,78.71
2022-12-23T19:42:41.795Z,78.86
2022-12-23T19:45:12.400Z,78.98
2022-12-23T19:47:42.473Z,79.07
2022-12-23T19:50:12.762Z,79.33
2022-12-23T19:52:44.046Z,79.08
2022-12-23T19:55:13.820Z,79.32
2022-12-23T19:57:44.039Z,79.45
2022-12-23T20:00:16.349Z,79.50
2022-12-23T20:02:46.440Z,79.61
2022-12-23T20:05:16.230Z,79.28
2022-12-23T20:07:46.414Z,79.39
2022-12-23T20:10:16.235Z,79.18
2022-12-23T20:12:46.275Z,79.23
2022-12-23T20:15:16.046Z,78.98
2022-12-23T20:17:46.086Z,79.15
2022-12-23T20:20:15.386Z,79.23
2022-12-23T20:22:44.937Z,79.06
2022-12-23T20:25:15.013Z,79.26
2022-12-23T20:27:45.071Z,79.22
2022-12-23T20:30:15.060Z,79.30
2022-12-23T20:32:45.093Z,79.37
2022-12-23T20:35:14.451Z,79.38
2022-12-23T20:37:44.105Z,79.15
2022-12-23T20:40:15.924Z,79.06
2022-12-23T20:42:46.403Z,79.05
2022-12-23T20:45:14.968Z,79.16
2022-12-23T20:47:47.684Z,79.06
2022-12-23T20:50:16.310Z,79.26
2022-12-23T20:52:46.005Z,79.06
2022-12-23T20:55:15.355Z,79.11
2022-12-23T20:57:47.727Z,79.23
2022-12-23T21:00:18.000Z,79.42
2022-12-23T21:02:48.107Z,79.25
2022-12-23T21:05:17.028Z,79.21
2022-12-23T21:07:46.442Z,79.51
2022-12-23T21:10:16.365Z,79.62
2022-12-23T21:12:46.507Z,79.20
2022-12-23T21:15:15.872Z,79.23
2022-12-23T21:17:46.094Z,79.61
2022-12-23T21:20:16.221Z,79.55
2022-12-23T21:22:46.660Z,79.58
2022-12-23T21:25:16.899Z,79.76
2022-12-23T21:27:46.125Z,79.59
2022-12-23T21:30:16.267Z,79.74
2022-12-23T21:32:46.567Z,79.86
2022-12-23T21:35:16.709Z,79.52
2022-12-23T21:37:46.150Z,79.51
2022-12-23T21:40:16.025Z,79.28
2022-12-23T21:42:46.180Z,79.51
2022-12-23T21:45:16.155Z,79.78
2022-12-23T21:47:44.651Z,79.70
2022-12-23T21:50:14.850Z,79.64
2022-12-23T21:52:43.699Z,79.36
2022-12-23T21:55:16.506Z,79.64
2022-12-23T21:57:47.173Z,79.53
2022-12-23T22:00:17.465Z,79.68
2022-12-23T22:02:47.588Z,79.61
2022-12-23T22:05:18.024Z,79.51
2022-12-23T22:07:48.042Z,79.27
2022-12-23T22:10:17.931Z,79.22
2022-12-23T22:12:48.075Z,79.33
2022-12-23T22:15:17.934Z,79.36
2022-12-23T22:17:47.535Z,79.29
2022-12-23T22:20:16.809Z,79.27
2022-12-23T22:22:46.799Z,79.23
2022-12-23T22:25:16.219Z,79.11
2022-12-23T22:27:46.231Z,79.25
2022-12-23T22:30:16.226Z,79.30
2022-12-23T22:32:46.236Z,79.43
2022-12-23T22:35:15.518Z,79.24
2022-12-23T22:37:45.572Z,79.18
2022-12-23T22:40:15.866Z,79.26
2022-12-23T22:42:46.050Z,79.08
2022-12-23T22:45:15.784Z,79.42
2022-12-23T22:47:45.917Z,79.07
2022-12-23T22:50:14.421Z,78.77
2022-12-23T22:52:45.021Z,78.88
2022-12-23T22:55:14.413Z,78.80
2022-12-23T22:57:44.468Z,79.33
2022-12-23T23:00:14.512Z,79.31
2022-12-23T23:02:44.551Z,79.26
2022-12-23T23:05:14.462Z,79.32
2022-12-23T23:07:44.552Z,79.34
2022-12-23T23:10:15.412Z,79.26
2022-12-23T23:12:45.363Z,78.67
2022-12-23T23:15:14.760Z,78.80
2022-12-23T23:17:44.793Z,78.85
2022-12-23T23:20:14.397Z,78.98
2022-12-23T23:22:45.012Z,79.05
2022-12-23T23:25:14.239Z,78.87
2022-12-23T23:27:44.184Z,78.82
2022-12-23T23:30:14.355Z,78.81
2022-12-23T23:32:43.689Z,79.08
2022-12-23T23:35:13.593Z,79.21
2022-12-23T23:37:43.183Z,78.97
2022-12-23T23:40:13.898Z,78.96
2022-12-23T23:42:43.240Z,79.08
2022-12-23T23:45:13.665Z,79.13
2022-12-23T23:47:42.235Z,79.27
2022-12-23T23:50:13.058Z,79.18
2022-12-23T23:52:42.537Z,79.01
2022-12-23T23:55:11.858Z,79.14
2022-12-23T23:57:41.909Z,79.33
